Time;durP1;ratioP1;P1;durP2;ratioP2;P2;SDS_P1;SDS_P2;PMS_P1;PMS_P2;Temp;Humidity;BMP_temperature;BMP_pressure;BME280_temperature;BME280_humidity;BME280_pressure;Samples;Min_cycle;Max_cycle;Signal;HPM_P1;HPM_P2
2022/01/22 00:00:21;;;;;;;;;;;;;;;-2.39;78.54;100918.75;5563243;32;34611;-84
2022/01/22 00:03:24;;;;;;;;;;;;;;;-2.42;78.38;100913.69;5563316;32;34590;-84
2022/01/22 00:06:26;;;;;;;;;;;;;;;-2.39;78.05;100913.56;5563701;32;34676;-84
2022/01/22 00:09:36;;;;;;;;;;;;;;;-2.38;78.72;100913.56;5564325;32;34603;-84
2022/01/22 00:15:42;;;;;;;;;;;;;;;-2.36;78.45;100903.12;5563947;32;34318;-84
2022/01/22 00:18:44;;;;;;;;;;;;;;;-2.52;79.39;100882.00;5562828;32;35024;-84
2022/01/22 00:21:50;;;;;;;;;;;;;;;-2.49;78.89;100887.94;5563255;32;36204;-84
2022/01/22 00:24:57;;;;;;;;;;;;;;;-2.43;79.53;100891.25;5564043;32;35222;-84
2022/01/22 00:28:06;;;;;;;;;;;;;;;-2.28;78.73;100884.78;5564591;32;34445;-84
2022/01/22 00:31:08;;;;;;;;;;;;;;;-2.36;79.37;100885.00;5562886;32;35429;-84
2022/01/22 00:34:12;;;;;;;;;;;;;;;-2.39;78.51;100887.66;5562389;32;35611;-84
2022/01/22 00:37:15;;;;;;;;;;;;;;;-2.37;77.69;100870.34;5563628;32;34407;-84
2022/01/22 00:40:18;;;;;;;;;;;;;;;-2.32;77.23;100863.28;5563206;32;35475;-84
2022/01/22 00:43:21;;;;;;;;;;;;;;;-2.33;77.03;100866.78;5564484;32;34666;-85
2022/01/22 00:46:27;;;;;;;;;;;;;;;-2.35;77.55;100853.00;5564981;32;35586;-85
2022/01/22 00:49:31;;;;;;;;;;;;;;;-2.30;76.98;100856.28;5562426;32;35188;-85
2022/01/22 00:52:49;;;;;;;;;;;;;;;-2.28;75.82;100848.50;5562881;32;35033;-84
2022/01/22 00:55:54;;;;;;;;;;;;;;;-2.31;75.78;100857.22;5562760;32;34684;-84
2022/01/22 00:58:56;;;;;;;;;;;;;;;-2.33;76.21;100852.06;5563095;32;35686;-84
2022/01/22 01:01:59;;;;;;;;;;;;;;;-2.34;76.45;100850.34;5562167;32;34265;-85
2022/01/22 01:05:06;;;;;;;;;;;;;;;-2.22;74.72;100837.91;5563309;32;34528;-85
2022/01/22 01:08:09;;;;;;;;;;;;;;;-2.30;75.36;100822.59;5562764;32;34679;-85
2022/01/22 01:11:14;;;;;;;;;;;;;;;-2.24;74.86;100817.25;5548001;32;34411;-84
2022/01/22 01:14:24;;;;;;;;;;;;;;;-2.20;75.45;100811.09;5562844;32;35144;-84
2022/01/22 01:34:15;;;;;;;;;;;;;;;-2.36;75.77;100765.78;5533452;32;944405;-84
2022/01/22 01:37:19;;;;;;;;;;;;;;;-2.22;75.11;100754.97;5561565;32;34223;-84
2022/01/22 01:40:24;;;;;;;;;;;;;;;-2.21;75.01;100746.31;5561603;32;34441;-84
2022/01/22 01:43:33;;;;;;;;;;;;;;;-2.12;73.83;100734.81;5560975;32;34507;-84
2022/01/22 01:46:48;;;;;;;;;;;;;;;-1.89;72.99;100716.75;5561172;32;36630;-84
2022/01/22 01:49:54;;;;;;;;;;;;;;;-1.97;74.83;100708.34;5561008;32;35102;-84
2022/01/22 01:53:11;;;;;;;;;;;;;;;-1.91;73.75;100692.59;5560545;32;35797;-84
2022/01/22 01:59:36;;;;;;;;;;;;;;;-1.79;73.81;100682.72;5561511;32;34606;-84
2022/01/22 02:02:39;;;;;;;;;;;;;;;-1.76;73.60;100665.28;5562463;32;34932;-85
2022/01/22 02:05:42;;;;;;;;;;;;;;;-1.72;73.70;100666.03;5561703;32;35936;-84
2022/01/22 02:08:45;;;;;;;;;;;;;;;-1.62;73.67;100662.19;5561732;32;35560;-84
2022/01/22 02:12:01;;;;;;;;;;;;;;;-1.66;74.11;100671.00;5561963;32;34657;-84
2022/01/22 02:25:11;;;;;;;;;;;;;;;-1.36;73.53;100652.62;5564074;32;34152;-85
2022/01/22 02:28:16;;;;;;;;;;;;;;;-1.47;74.42;100649.59;5563520;32;34597;-85
2022/01/22 02:31:32;;;;;;;;;;;;;;;-1.62;75.51;100649.22;5563835;32;34229;-84
2022/01/22 02:34:43;;;;;;;;;;;;;;;-1.66;75.15;100639.88;5563870;32;34569;-84
2022/01/22 02:37:54;;;;;;;;;;;;;;;-1.69;75.35;100608.00;5563755;32;34830;-84
2022/01/22 02:40:56;;;;;;;;;;;;;;;-1.94;77.42;100625.28;5563136;32;34436;-84
2022/01/22 02:44:01;;;;;;;;;;;;;;;-1.90;77.58;100615.63;5563799;32;34347;-84
2022/01/22 02:47:08;;;;;;;;;;;;;;;-1.86;77.43;100631.03;5563867;32;35157;-84
2022/01/22 02:50:12;;;;;;;;;;;;;;;-1.97;78.66;100621.94;5563666;32;34393;-84
2022/01/22 02:53:15;;;;;;;;;;;;;;;-1.97;77.15;100633.16;5563586;32;35504;-84
2022/01/22 02:56:19;;;;;;;;;;;;;;;-1.97;77.33;100609.81;5564211;32;34931;-84
2022/01/22 02:59:23;;;;;;;;;;;;;;;-1.93;76.67;100611.41;5564537;32;35406;-84
2022/01/22 03:02:26;;;;;;;;;;;;;;;-1.84;76.20;100614.56;5561930;32;35167;-84
2022/01/22 03:05:29;;;;;;;;;;;;;;;-1.76;75.38;100600.44;5563548;32;35087;-84
2022/01/22 03:08:32;;;;;;;;;;;;;;;-1.66;75.38;100606.16;5563418;32;34728;-84
2022/01/22 03:12:11;;;;;;;;;;;;;;;-1.59;74.65;100602.41;5562991;32;34499;-84
2022/01/22 03:19:32;;;;;;;;;;;;;;;-1.87;76.25;100600.84;5563099;32;35599;-84
2022/01/22 03:22:15;;;;;;;;;;;;;;;-1.73;75.88;100605.53;5561642;32;34435;-85
2022/01/22 03:28:52;;;;;;;;;;;;;;;-1.45;74.10;100601.91;5563121;32;35578;-84
2022/01/22 03:31:55;;;;;;;;;;;;;;;-1.34;73.79;100608.44;5562830;32;35079;-84
2022/01/22 03:34:59;;;;;;;;;;;;;;;-1.47;75.25;100603.72;5563749;32;34632;-84
2022/01/22 03:38:04;;;;;;;;;;;;;;;-1.23;74.45;100600.25;5563276;32;34006;-84
2022/01/22 03:41:07;;;;;;;;;;;;;;;-1.34;75.12;100587.69;5563936;32;34662;-84
2022/01/22 03:44:11;;;;;;;;;;;;;;;-1.22;75.87;100596.75;5563331;32;34086;-84
2022/01/22 03:47:15;;;;;;;;;;;;;;;-1.20;76.98;100589.78;5562227;32;35215;-84
2022/01/22 03:50:19;;;;;;;;;;;;;;;-1.22;80.74;100576.00;5563583;32;34143;-84
2022/01/22 03:53:22;;;;;;;;;;;;;;;-1.28;81.81;100583.09;5563131;32;35070;-84
2022/01/22 03:56:26;;;;;;;;;;;;;;;-1.21;81.60;100588.06;5563780;32;35421;-84
2022/01/22 03:59:30;;;;;;;;;;;;;;;-1.26;81.65;100576.09;5562260;32;35453;-84
2022/01/22 04:05:56;;;;;;;;;;;;;;;-1.26;80.78;100563.13;5562514;32;35548;-84
2022/01/22 04:09:09;;;;;;;;;;;;;;;-1.21;81.07;100556.91;5563807;32;36714;-84
2022/01/22 04:12:15;;;;;;;;;;;;;;;-1.18;82.47;100549.03;5563454;32;32877;-84
2022/01/22 04:15:22;;;;;;;;;;;;;;;-1.17;83.25;100548.09;5563821;32;34114;-84
2022/01/22 04:25:08;;;;;;;;;;;;;;;-1.42;94.31;100525.69;5563882;32;35497;-84
2022/01/22 04:28:12;;;;;;;;;;;;;;;-1.48;95.21;100528.50;5564313;32;34677;-84
2022/01/22 04:31:15;;;;;;;;;;;;;;;-1.52;95.31;100527.78;5563003;32;35166;-84
2022/01/22 04:34:18;;;;;;;;;;;;;;;-1.53;96.97;100525.25;5562464;32;34847;-85
2022/01/22 04:37:28;;;;;;;;;;;;;;;-1.45;98.62;100520.62;5563207;32;34454;-84
2022/01/22 04:40:33;;;;;;;;;;;;;;;-1.48;100.00;100516.41;5562083;32;34948;-84
2022/01/22 04:43:40;;;;;;;;;;;;;;;-1.60;100.00;100525.47;5562301;32;34662;-84
2022/01/22 04:56:15;;;;;;;;;;;;;;;-1.93;100.00;100518.03;5562340;32;34454;-84
2022/01/22 04:59:18;;;;;;;;;;;;;;;-2.17;100.00;100525.78;5561300;32;33923;-84
2022/01/22 05:02:20;;;;;;;;;;;;;;;-2.20;100.00;100525.94;5561427;32;34186;-84
2022/01/22 05:05:23;;;;;;;;;;;;;;;-2.13;100.00;100536.91;5560491;32;34828;-84
2022/01/22 05:08:29;;;;;;;;;;;;;;;-2.19;100.00;100530.19;5561678;32;34944;-84
2022/01/22 05:11:32;;;;;;;;;;;;;;;-2.22;100.00;100532.91;5562070;32;34456;-84
2022/01/22 05:14:35;;;;;;;;;;;;;;;-2.39;100.00;100525.72;5562391;32;35360;-84
2022/01/22 05:17:41;;;;;;;;;;;;;;;-2.41;100.00;100521.47;5562099;32;34459;-84
2022/01/22 05:20:52;;;;;;;;;;;;;;;-2.30;100.00;100524.53;5561339;32;34630;-84
2022/01/22 05:24:00;;;;;;;;;;;;;;;-2.36;100.00;100519.56;5562683;32;35248;-84
2022/01/22 05:39:53;;;;;;;;;;;;;;;-2.20;100.00;100520.75;5560311;32;34974;-83
2022/01/22 05:42:56;;;;;;;;;;;;;;;-2.25;100.00;100520.03;5560550;32;34460;-83
2022/01/22 05:46:00;;;;;;;;;;;;;;;-2.20;100.00;100517.28;5560794;32;36017;-83
2022/01/22 05:49:03;;;;;;;;;;;;;;;-2.21;100.00;100513.00;5559758;32;35426;-84
2022/01/22 05:52:08;;;;;;;;;;;;;;;-2.18;100.00;100515.50;5559549;32;34907;-85
2022/01/22 06:01:37;;;;;;;;;;;;;;;-2.28;100.00;100491.63;5562232;32;34885;-84
2022/01/22 06:04:41;;;;;;;;;;;;;;;-2.29;100.00;100489.09;5563587;32;34541;-84
2022/01/22 06:07:44;;;;;;;;;;;;;;;-2.25;100.00;100491.53;5562331;32;34415;-84
2022/01/22 06:10:54;;;;;;;;;;;;;;;-2.15;100.00;100497.25;5561417;32;34610;-83
2022/01/22 06:13:57;;;;;;;;;;;;;;;-2.14;100.00;100477.34;5561471;32;35550;-83
2022/01/22 06:17:01;;;;;;;;;;;;;;;-2.04;100.00;100481.28;5561682;32;34230;-84
2022/01/22 06:20:04;;;;;;;;;;;;;;;-1.95;100.00;100488.72;5562055;32;34727;-83
2022/01/22 06:23:08;;;;;;;;;;;;;;;-1.85;100.00;100484.06;5562111;32;33997;-84
2022/01/22 06:26:11;;;;;;;;;;;;;;;-1.80;100.00;100483.88;5562593;32;34134;-84
2022/01/22 06:29:15;;;;;;;;;;;;;;;-1.78;100.00;100489.84;5561951;32;34531;-84
2022/01/22 06:32:18;;;;;;;;;;;;;;;-1.70;100.00;100487.81;5562480;32;34862;-84
2022/01/22 06:35:24;;;;;;;;;;;;;;;-1.73;100.00;100499.16;5562595;32;34417;-84
2022/01/22 06:38:27;;;;;;;;;;;;;;;-1.61;100.00;100508.22;5562933;32;35040;-85
2022/01/22 06:41:46;;;;;;;;;;;;;;;-1.52;100.00;100516.56;5562033;32;34656;-84
2022/01/22 06:44:54;;;;;;;;;;;;;;;-1.41;100.00;100522.19;5563008;32;34406;-84
2022/01/22 06:47:57;;;;;;;;;;;;;;;-1.43;100.00;100522.25;5562908;32;35204;-84
2022/01/22 06:51:03;;;;;;;;;;;;;;;-1.37;100.00;100531.53;5562819;32;35468;-84
2022/01/22 06:54:10;;;;;;;;;;;;;;;-1.33;100.00;100534.84;5562728;32;35179;-84
2022/01/22 06:57:13;;;;;;;;;;;;;;;-1.33;100.00;100543.50;5562374;32;34414;-84
2022/01/22 07:00:16;;;;;;;;;;;;;;;-1.37;100.00;100544.53;5562737;32;34414;-82
2022/01/22 07:03:24;;;;;;;;;;;;;;;-1.48;100.00;100554.47;5562860;32;34802;-83
2022/01/22 07:06:27;;;;;;;;;;;;;;;-1.53;100.00;100546.03;5563035;32;34448;-83
2022/01/22 07:09:30;;;;;;;;;;;;;;;-1.40;100.00;100549.81;5561864;32;35568;-83
2022/01/22 07:12:33;;;;;;;;;;;;;;;-1.50;100.00;100561.44;5561402;32;34295;-83
2022/01/22 07:15:36;;;;;;;;;;;;;;;-1.35;100.00;100563.47;5560859;32;35076;-85
2022/01/22 07:18:40;;;;;;;;;;;;;;;-1.26;100.00;100563.13;5561542;32;35295;-84
2022/01/22 07:21:42;;;;;;;;;;;;;;;-1.18;100.00;100562.00;5561175;32;33849;-83
2022/01/22 07:24:45;;;;;;;;;;;;;;;-1.03;100.00;100565.75;5561544;32;34978;-83
2022/01/22 07:27:49;;;;;;;;;;;;;;;-1.02;100.00;100560.47;5560711;32;34679;-84
2022/01/22 07:30:52;;;;;;;;;;;;;;;-0.96;100.00;100557.62;5560797;32;35064;-83
2022/01/22 07:33:55;;;;;;;;;;;;;;;-0.84;100.00;100565.84;5560493;32;34076;-83
2022/01/22 07:37:02;;;;;;;;;;;;;;;-0.66;100.00;100565.13;5560514;32;35040;-83
2022/01/22 07:40:06;;;;;;;;;;;;;;;-0.53;100.00;100564.59;5561628;32;34729;-83
2022/01/22 07:43:11;;;;;;;;;;;;;;;-0.34;100.00;100565.53;5561543;32;35321;-84
2022/01/22 07:46:17;;;;;;;;;;;;;;;-0.40;100.00;100573.59;5561565;32;36684;-83
2022/01/22 07:49:22;;;;;;;;;;;;;;;-0.39;100.00;100587.41;5562387;32;35594;-84
2022/01/22 07:52:24;;;;;;;;;;;;;;;-0.53;100.00;100582.81;5562248;32;34459;-83
2022/01/22 07:55:28;;;;;;;;;;;;;;;-0.35;100.00;100584.62;5562835;32;36173;-83
2022/01/22 07:58:32;;;;;;;;;;;;;;;-0.34;100.00;100575.09;5561971;32;34628;-83
2022/01/22 08:01:35;;;;;;;;;;;;;;;-0.32;100.00;100578.44;5564183;32;34733;-85
2022/01/22 08:04:47;;;;;;;;;;;;;;;-0.33;100.00;100589.75;5562851;32;34928;-85
2022/01/22 08:07:54;;;;;;;;;;;;;;;-0.52;100.00;100597.50;5561377;32;33394;-85
2022/01/22 08:11:03;;;;;;;;;;;;;;;-0.53;100.00;100595.81;5562846;32;33762;-83
2022/01/22 08:14:10;;;;;;;;;;;;;;;-0.69;100.00;100591.22;5563648;32;35453;-84
2022/01/22 08:17:13;;;;;;;;;;;;;;;-0.95;100.00;100593.09;5561873;32;34846;-85
2022/01/22 08:20:16;;;;;;;;;;;;;;;-1.08;100.00;100599.69;5562370;32;35419;-84
2022/01/22 08:23:24;;;;;;;;;;;;;;;-0.94;100.00;100612.97;5562105;32;34385;-85
2022/01/22 08:26:35;;;;;;;;;;;;;;;-0.89;100.00;100609.34;5563309;32;33097;-85
2022/01/22 08:29:41;;;;;;;;;;;;;;;-0.90;100.00;100618.03;5563426;32;35544;-85
2022/01/22 08:36:06;;;;;;;;;;;;;;;-0.96;100.00;100600.94;5544593;32;34444;-85
2022/01/22 08:39:09;;;;;;;;;;;;;;;-0.88;100.00;100595.47;5561151;32;35093;-84
2022/01/22 08:42:11;;;;;;;;;;;;;;;-0.84;100.00;100612.59;5560761;32;34239;-84
2022/01/22 08:45:14;;;;;;;;;;;;;;;-0.79;100.00;100618.47;5560876;32;34615;-85
2022/01/22 08:48:19;;;;;;;;;;;;;;;-0.78;100.00;100618.41;5560393;32;34529;-85
2022/01/22 08:51:22;;;;;;;;;;;;;;;-0.67;100.00;100630.97;5559873;32;34559;-83
2022/01/22 08:54:25;;;;;;;;;;;;;;;-0.57;98.26;100631.47;5560892;32;34843;-84
2022/01/22 08:57:28;;;;;;;;;;;;;;;-0.56;98.37;100638.34;5562012;32;34728;-84
2022/01/22 09:00:32;;;;;;;;;;;;;;;-0.45;96.40;100640.50;5560460;32;34778;-84
2022/01/22 09:03:37;;;;;;;;;;;;;;;-0.35;94.43;100652.22;5562995;32;35149;-84
2022/01/22 09:06:40;;;;;;;;;;;;;;;-0.32;94.64;100656.44;5561727;32;34197;-84
2022/01/22 09:09:43;;;;;;;;;;;;;;;-0.22;91.62;100664.72;5562464;32;34573;-84
2022/01/22 09:12:50;;;;;;;;;;;;;;;-0.18;92.37;100661.09;5561666;32;34551;-84
2022/01/22 09:15:54;;;;;;;;;;;;;;;-0.09;85.98;100670.25;5560625;32;34241;-84
2022/01/22 09:19:05;;;;;;;;;;;;;;;0.13;83.46;100672.81;5560627;32;35514;-83
2022/01/22 09:22:08;;;;;;;;;;;;;;;0.21;80.01;100681.13;5560924;32;35190;-84
2022/01/22 09:25:15;;;;;;;;;;;;;;;0.33;79.29;100689.34;5561544;32;34350;-83
2022/01/22 09:28:18;;;;;;;;;;;;;;;0.37;80.19;100683.09;5561223;32;34688;-83
2022/01/22 09:31:23;;;;;;;;;;;;;;;0.43;78.19;100688.03;5561206;32;35610;-83
2022/01/22 09:34:28;;;;;;;;;;;;;;;0.43;79.65;100688.03;5565011;32;35137;-84
2022/01/22 09:37:31;;;;;;;;;;;;;;;0.49;78.48;100695.59;5563771;32;35535;-84
2022/01/22 09:40:36;;;;;;;;;;;;;;;0.51;78.76;100698.94;5563146;32;34678;-84
2022/01/22 09:43:49;;;;;;;;;;;;;;;0.49;78.28;100707.75;5563801;32;34857;-84
2022/01/22 09:46:52;;;;;;;;;;;;;;;0.58;75.43;100703.00;5563668;32;34390;-84
2022/01/22 09:49:59;;;;;;;;;;;;;;;0.66;73.84;100701.78;5563489;32;36076;-84
2022/01/22 09:53:03;;;;;;;;;;;;;;;0.66;71.68;100704.41;5565040;32;34330;-83
2022/01/22 09:56:10;;;;;;;;;;;;;;;0.71;70.62;100694.63;5564228;32;34163;-83
2022/01/22 09:59:15;;;;;;;;;;;;;;;0.70;71.52;100703.38;5562533;32;34166;-83
2022/01/22 10:02:20;;;;;;;;;;;;;;;0.70;73.07;100703.38;5564247;32;34054;-84
2022/01/22 10:05:29;;;;;;;;;;;;;;;0.70;74.61;100698.16;5564983;32;34529;-84
2022/01/22 10:08:36;;;;;;;;;;;;;;;0.76;71.84;100695.25;5564491;32;35534;-84
2022/01/22 10:12:01;;;;;;;;;;;;;;;0.75;70.88;100701.37;5563329;32;34490;-84
2022/01/22 10:15:09;;;;;;;;;;;;;;;0.84;69.39;100707.94;5562335;32;35382;-84
2022/01/22 10:18:17;;;;;;;;;;;;;;;0.83;68.00;100709.72;5563476;32;35649;-84
2022/01/22 10:21:19;;;;;;;;;;;;;;;0.85;69.22;100710.47;5562687;32;36966;-83
2022/01/22 10:24:38;;;;;;;;;;;;;;;0.82;68.53;100717.59;5561955;32;34777;-84
2022/01/22 10:27:46;;;;;;;;;;;;;;;0.86;64.42;100709.56;5562150;32;35595;-84
2022/01/22 10:30:55;;;;;;;;;;;;;;;1.01;66.13;100713.25;5562908;32;34532;-83
2022/01/22 10:34:09;;;;;;;;;;;;;;;1.14;66.30;100726.56;5564131;32;34391;-83
2022/01/22 10:37:26;;;;;;;;;;;;;;;1.15;67.99;100725.66;5562850;32;34027;-83
2022/01/22 10:40:36;;;;;;;;;;;;;;;1.19;63.38;100727.19;5562452;32;33074;-84
2022/01/22 10:43:43;;;;;;;;;;;;;;;1.21;64.28;100725.34;5561676;32;35449;-84
2022/01/22 10:46:49;;;;;;;;;;;;;;;1.03;65.88;100734.84;5561852;32;34140;-84
2022/01/22 10:49:53;;;;;;;;;;;;;;;0.98;65.69;100733.38;5563313;32;34182;-86
2022/01/22 10:52:57;;;;;;;;;;;;;;;1.10;67.13;100732.00;5562014;32;35622;-84
2022/01/22 10:56:00;;;;;;;;;;;;;;;1.12;64.96;100731.00;5560906;32;35143;-84
2022/01/22 10:59:07;;;;;;;;;;;;;;;1.20;64.83;100739.31;5562557;32;34930;-84
2022/01/22 11:02:12;;;;;;;;;;;;;;;1.18;64.45;100738.53;5561927;32;34688;-84
2022/01/22 11:05:32;;;;;;;;;;;;;;;1.17;62.82;100739.47;5552963;32;35147;-83
2022/01/22 11:08:35;;;;;;;;;;;;;;;1.29;64.56;100748.47;5542479;32;35524;-84
2022/01/22 11:11:40;;;;;;;;;;;;;;;1.24;61.95;100750.44;5543833;32;35570;-83
2022/01/22 11:14:47;;;;;;;;;;;;;;;1.11;63.99;100755.37;5543697;32;34814;-83
2022/01/22 11:17:56;;;;;;;;;;;;;;;1.12;61.89;100749.25;5542808;32;34375;-84
2022/01/22 11:21:00;;;;;;;;;;;;;;;1.27;62.27;100760.72;5542472;32;34197;-84
2022/01/22 11:24:05;;;;;;;;;;;;;;;1.32;62.53;100770.94;5541827;32;34956;-85
2022/01/22 11:27:10;;;;;;;;;;;;;;;1.32;61.29;100778.75;5543772;32;34462;-84
2022/01/22 11:30:17;;;;;;;;;;;;;;;1.36;60.48;100785.53;5544294;32;35456;-84
2022/01/22 11:33:22;;;;;;;;;;;;;;;1.27;63.88;100783.34;5543409;32;36804;-84
2022/01/22 11:36:31;;;;;;;;;;;;;;;1.37;60.96;100790.66;5543555;32;34011;-84
2022/01/22 11:39:33;;;;;;;;;;;;;;;1.36;62.06;100785.53;5541678;32;34251;-83
2022/01/22 11:42:58;;;;;;;;;;;;;;;1.48;58.41;100779.75;5543669;32;34561;-84
2022/01/22 11:46:16;;;;;;;;;;;;;;;1.57;59.16;100782.84;5544349;32;35314;-84
2022/01/22 11:49:25;;;;;;;;;;;;;;;1.40;58.93;100794.91;5542429;32;34698;-84
2022/01/22 11:52:33;;;;;;;;;;;;;;;1.48;58.75;100789.34;5551533;32;34646;-83
2022/01/22 11:55:36;;;;;;;;;;;;;;;1.38;60.07;100804.56;5561687;32;35332;-84
2022/01/22 11:59:04;;;;;;;;;;;;;;;1.46;59.85;100805.06;5563395;32;34739;-84
2022/01/22 12:02:17;;;;;;;;;;;;;;;1.52;59.76;100817.81;5561082;32;35040;-84
2022/01/22 12:05:19;;;;;;;;;;;;;;;1.51;59.94;100816.13;5563211;32;34560;-84
2022/01/22 12:08:23;;;;;;;;;;;;;;;1.59;59.82;100817.53;5561616;32;34421;-84
2022/01/22 12:14:59;;;;;;;;;;;;;;;1.49;57.30;100812.75;5560682;32;34109;-83
2022/01/22 12:18:04;;;;;;;;;;;;;;;1.38;56.71;100805.41;5560344;32;34937;-84
2022/01/22 12:24:30;;;;;;;;;;;;;;;1.61;56.11;100806.09;5549606;32;35463;-84
2022/01/22 12:27:49;;;;;;;;;;;;;;;1.61;54.66;100821.75;5560679;32;34431;-83
2022/01/22 12:31:00;;;;;;;;;;;;;;;1.56;53.71;100804.62;5561416;32;34752;-83
2022/01/22 12:34:07;;;;;;;;;;;;;;;1.52;55.11;100796.94;5561164;32;34245;-84
2022/01/22 12:37:19;;;;;;;;;;;;;;;1.60;55.71;100793.97;5556032;32;34463;-83
2022/01/22 12:40:32;;;;;;;;;;;;;;;1.53;54.99;100814.28;5542080;32;34617;-83
2022/01/22 12:43:38;;;;;;;;;;;;;;;1.53;55.33;100803.84;5541249;32;34751;-83
2022/01/22 12:46:40;;;;;;;;;;;;;;;1.52;56.48;100791.72;5541880;32;34794;-84
2022/01/22 12:49:43;;;;;;;;;;;;;;;1.56;56.44;100802.87;5541895;32;34565;-83
2022/01/22 12:52:48;;;;;;;;;;;;;;;1.52;54.45;100809.97;5541407;32;34567;-84
2022/01/22 12:59:00;;;;;;;;;;;;;;;1.56;53.44;100817.66;5560806;32;33975;-84
2022/01/22 13:02:03;;;;;;;;;;;;;;;1.50;54.45;100819.66;5559106;32;35080;-83
2022/01/22 13:05:07;;;;;;;;;;;;;;;1.61;53.24;100810.50;5561371;32;34474;-84
2022/01/22 13:08:12;;;;;;;;;;;;;;;1.60;51.82;100816.63;5559651;32;35621;-83
2022/01/22 13:11:18;;;;;;;;;;;;;;;1.68;50.44;100833.63;5560687;32;34285;-84
2022/01/22 13:14:30;;;;;;;;;;;;;;;1.68;50.70;100823.19;5560340;32;34621;-83
2022/01/22 13:17:33;;;;;;;;;;;;;;;1.70;50.89;100823.94;5563069;32;34413;-83
2022/01/22 13:20:36;;;;;;;;;;;;;;;1.60;51.01;100840.09;5549379;32;35478;-83
2022/01/22 13:23:39;;;;;;;;;;;;;;;1.61;50.79;100831.34;5542350;32;35133;-84
2022/01/22 13:26:45;;;;;;;;;;;;;;;1.53;53.60;100835.16;5541341;32;34246;-83
2022/01/22 13:29:54;;;;;;;;;;;;;;;1.49;53.92;100862.28;5542345;32;35496;-85
2022/01/22 13:33:03;;;;;;;;;;;;;;;1.42;52.42;100873.91;5540787;32;34884;-84
2022/01/22 13:45:07;;;;;;;;;;;;;;;1.41;50.93;100898.28;5560221;32;35286;-84
2022/01/22 13:48:56;;;;;;;;;;;;;;;1.39;52.06;100905.34;5559906;32;34354;-83
2022/01/22 13:52:01;;;;;;;;;;;;;;;1.45;51.38;100914.66;5559922;32;35092;-84
2022/01/22 13:55:03;;;;;;;;;;;;;;;1.37;51.28;100917.59;5559463;32;35484;-83
2022/01/22 13:58:16;;;;;;;;;;;;;;;1.32;50.57;100911.72;5559597;32;33940;-83
2022/01/22 14:01:44;;;;;;;;;;;;;;;1.30;51.35;100905.72;5559317;32;34163;-84
2022/01/22 14:04:59;;;;;;;;;;;;;;;1.29;49.84;100919.69;5543695;32;34695;-83
2022/01/22 14:08:04;;;;;;;;;;;;;;;1.28;50.79;100941.47;5558780;32;34184;-83
2022/01/22 14:11:12;;;;;;;;;;;;;;;1.18;50.16;100943.59;5560019;32;35329;-84
2022/01/22 14:14:14;;;;;;;;;;;;;;;1.03;50.87;100940.72;5558625;32;34689;-82
2022/01/22 14:17:20;;;;;;;;;;;;;;;1.07;51.00;100941.44;5557262;32;34053;-82
2022/01/22 14:20:24;;;;;;;;;;;;;;;0.95;52.12;100957.59;5559571;32;35212;-83
2022/01/22 14:23:27;;;;;;;;;;;;;;;0.95;50.95;100960.22;5563918;32;35500;-85
2022/01/22 14:26:33;;;;;;;;;;;;;;;0.84;51.97;100963.25;5560939;32;34480;-83
2022/01/22 14:29:42;;;;;;;;;;;;;;;0.81;51.55;100987.66;5560830;32;35230;-82
2022/01/22 14:32:54;;;;;;;;;;;;;;;0.80;51.95;101006.81;5563951;32;34587;-82
2022/01/22 14:36:06;;;;;;;;;;;;;;;0.65;53.27;101007.41;5562005;32;34452;-83
2022/01/22 14:46:02;;;;;;;;;;;;;;;0.52;53.43;101031.31;5549955;32;35349;-83
2022/01/22 14:49:05;;;;;;;;;;;;;;;0.27;55.32;101034.00;5560005;32;34755;-83
2022/01/22 14:52:12;;;;;;;;;;;;;;;0.20;54.78;101028.16;5558569;32;34190;-83
2022/01/22 14:55:15;;;;;;;;;;;;;;;0.12;55.30;101041.44;5562101;32;34955;-84
2022/01/22 14:58:17;;;;;;;;;;;;;;;-0.04;56.79;101033.34;5562232;32;34957;-83
2022/01/22 15:01:25;;;;;;;;;;;;;;;-0.13;56.86;101040.66;5563768;32;34281;-83
2022/01/22 15:04:31;;;;;;;;;;;;;;;-0.07;56.41;101046.50;5563190;32;35092;-83
2022/01/22 15:07:34;;;;;;;;;;;;;;;-0.24;57.10;101048.81;5561612;32;35441;-84
2022/01/22 15:10:38;;;;;;;;;;;;;;;-0.28;56.83;101053.28;5561767;32;34468;-84
2022/01/22 15:13:41;;;;;;;;;;;;;;;-0.34;57.04;101062.16;5563202;32;33738;-83
2022/01/22 15:17:03;;;;;;;;;;;;;;;-0.45;57.28;101077.25;5561300;32;34569;-83
2022/01/22 15:20:06;;;;;;;;;;;;;;;-0.50;58.20;101084.34;5561302;32;34089;-83
2022/01/22 15:23:11;;;;;;;;;;;;;;;-0.37;56.86;101093.44;5542587;32;35576;-83
2022/01/22 15:26:14;;;;;;;;;;;;;;;-0.42;57.29;101094.50;5542366;32;34314;-83
2022/01/22 15:29:24;;;;;;;;;;;;;;;-0.52;57.82;101112.16;5542672;32;34780;-83
2022/01/22 15:35:36;;;;;;;;;;;;;;;-0.72;58.28;101111.03;5542511;32;34201;-83
2022/01/22 15:38:39;;;;;;;;;;;;;;;-0.79;58.82;101114.75;5542043;32;35358;-83
2022/01/22 15:41:41;;;;;;;;;;;;;;;-0.91;59.63;101126.38;5541962;32;35066;-83
2022/01/22 15:44:44;;;;;;;;;;;;;;;-0.97;59.09;101122.22;5549370;32;34567;-83
2022/01/22 15:47:46;;;;;;;;;;;;;;;-0.97;59.73;101126.53;5562694;32;33926;-85
2022/01/22 15:50:51;;;;;;;;;;;;;;;-1.09;59.19;101132.97;5561483;32;35413;-84
2022/01/22 15:53:56;;;;;;;;;;;;;;;-1.13;59.42;101139.16;5560885;32;34381;-82
2022/01/22 15:57:05;;;;;;;;;;;;;;;-0.97;58.21;101143.00;5559919;32;35199;-83
2022/01/22 16:00:08;;;;;;;;;;;;;;;-1.03;59.06;101153.56;5560702;32;34631;-83
2022/01/22 16:03:18;;;;;;;;;;;;;;;-1.12;59.01;101153.84;5561777;32;35619;-83
2022/01/22 16:06:22;;;;;;;;;;;;;;;-1.14;58.04;101163.41;5560366;32;34561;-83
2022/01/22 16:09:26;;;;;;;;;;;;;;;-1.07;56.68;101177.06;5561178;32;34757;-83
2022/01/22 16:12:37;;;;;;;;;;;;;;;-1.18;57.21;101186.03;5561482;32;34371;-83
2022/01/22 16:15:40;;;;;;;;;;;;;;;-1.20;57.03;101199.97;5562444;32;35622;-83
2022/01/22 16:18:43;;;;;;;;;;;;;;;-1.22;56.53;101205.19;5562079;32;34618;-83
2022/01/22 16:21:46;;;;;;;;;;;;;;;-1.26;56.37;101213.97;5562361;32;34534;-83
2022/01/22 16:24:49;;;;;;;;;;;;;;;-1.31;57.38;101223.63;5560663;32;34652;-85
2022/01/22 16:27:54;;;;;;;;;;;;;;;-1.30;57.74;101233.97;5561290;32;34780;-83
2022/01/22 16:30:57;;;;;;;;;;;;;;;-1.44;58.63;101230.91;5562688;32;35602;-84
2022/01/22 16:34:00;;;;;;;;;;;;;;;-1.42;58.86;101239.50;5561097;32;35350;-85
2022/01/22 16:37:03;;;;;;;;;;;;;;;-1.50;61.41;101236.22;5562513;32;35518;-83
2022/01/22 16:40:06;;;;;;;;;;;;;;;-1.53;62.73;101236.34;5561625;32;35063;-83
2022/01/22 16:43:12;;;;;;;;;;;;;;;-1.54;62.86;101239.81;5560615;32;35510;-83
2022/01/22 16:56:03;;;;;;;;;;;;;;;-1.48;62.97;101250.03;5560411;32;35338;-83
2022/01/22 16:59:13;;;;;;;;;;;;;;;-1.57;64.17;101236.41;5562648;32;35319;-84
2022/01/22 17:02:18;;;;;;;;;;;;;;;-1.56;63.65;101237.25;5561993;32;34349;-84
2022/01/22 17:05:21;;;;;;;;;;;;;;;-1.66;64.26;101251.34;5561270;32;34687;-83
2022/01/22 17:08:40;;;;;;;;;;;;;;;-1.75;65.00;101260.25;5561353;32;34571;-83
2022/01/22 17:15:04;;;;;;;;;;;;;;;-1.83;65.79;101285.50;5560617;32;34705;-83
2022/01/22 17:18:09;;;;;;;;;;;;;;;-1.95;66.68;101303.06;5560511;32;35180;-83
2022/01/22 17:21:12;;;;;;;;;;;;;;;-1.94;66.22;101299.59;5548297;32;34095;-83
2022/01/22 17:24:16;;;;;;;;;;;;;;;-2.03;66.94;101294.63;5541822;32;34499;-85
2022/01/22 17:27:20;;;;;;;;;;;;;;;-2.15;67.07;101302.69;5561391;32;34322;-83
2022/01/22 17:30:23;;;;;;;;;;;;;;;-2.10;66.86;101303.44;5560231;32;34602;-83
2022/01/22 17:33:25;;;;;;;;;;;;;;;-2.07;66.24;101311.13;5559963;32;34967;-83
2022/01/22 17:36:36;;;;;;;;;;;;;;;-2.20;67.18;101321.81;5554850;32;34334;-86
2022/01/22 17:39:39;;;;;;;;;;;;;;;-2.24;67.01;101322.75;5542398;32;34358;-83
2022/01/22 17:42:42;;;;;;;;;;;;;;;-2.33;67.93;101328.16;5541217;32;34583;-84
2022/01/22 17:45:45;;;;;;;;;;;;;;;-2.35;68.25;101346.31;5542858;32;34454;-83
2022/01/22 17:48:48;;;;;;;;;;;;;;;-2.33;67.14;101344.53;5540581;32;35344;-86
2022/01/22 17:51:51;;;;;;;;;;;;;;;-2.36;67.36;101343.75;5542352;32;34237;-85
2022/01/22 17:54:58;;;;;;;;;;;;;;;-2.49;68.85;101351.78;5543377;32;34246;-86
2022/01/22 17:58:00;;;;;;;;;;;;;;;-2.50;68.36;101347.47;5543221;32;35249;-86
2022/01/22 18:01:24;;;;;;;;;;;;;;;-2.57;67.77;101345.91;5543183;32;34500;-85